Time;durP1;ratioP1;P1;durP2;ratioP2;P2;SDS_P1;SDS_P2;PMS_P1;PMS_P2;Temp;Humidity;BMP_temperature;BMP_pressure;BME280_temperature;BME280_humidity;BME280_pressure;Samples;Min_cycle;Max_cycle;Signal;HPM_P1;HPM_P2
2023/02/20 00:01:15;;;;;;;;;21.00;19.50;;;;;;;;4934834;29;11579;-69
2023/02/20 00:03:40;;;;;;;;;27.25;25.00;;;;;;;;4933653;29;8823;-68
2023/02/20 00:06:06;;;;;;;;;23.25;23.25;;;;;;;;4934882;29;8799;-66
2023/02/20 00:08:31;;;;;;;;;21.00;17.75;;;;;;;;4934813;29;8806;-67
2023/02/20 00:10:57;;;;;;;;;22.50;20.50;;;;;;;;4934419;29;8922;-67
2023/02/20 00:13:22;;;;;;;;;22.00;20.75;;;;;;;;4933608;29;8819;-66
2023/02/20 00:15:48;;;;;;;;;23.50;22.00;;;;;;;;4933588;29;8893;-67
2023/02/20 00:18:13;;;;;;;;;23.75;22.00;;;;;;;;4934502;29;8945;-68
2023/02/20 00:20:38;;;;;;;;;20.00;18.75;;;;;;;;4934661;29;8838;-68
2023/02/20 00:23:03;;;;;;;;;22.25;22.25;;;;;;;;4934673;29;8818;-67
2023/02/20 00:25:29;;;;;;;;;25.50;20.75;;;;;;;;4934387;29;8799;-67
2023/02/20 00:27:54;;;;;;;;;27.00;22.25;;;;;;;;4934571;29;8906;-67
2023/02/20 00:30:20;;;;;;;;;22.50;22.50;;;;;;;;4951354;28;8820;-67
2023/02/20 00:32:47;;;;;;;;;19.25;19.25;;;;;;;;4953299;28;8815;-67
2023/02/20 00:35:12;;;;;;;;;20.00;20.00;;;;;;;;4953291;28;11560;-67
2023/02/20 00:37:38;;;;;;;;;23.25;19.00;;;;;;;;4953222;28;11640;-66
2023/02/20 00:40:04;;;;;;;;;22.25;22.00;;;;;;;;4953087;28;8858;-66
2023/02/20 00:42:29;;;;;;;;;23.50;21.75;;;;;;;;4953526;28;8827;-67
2023/02/20 00:44:54;;;;;;;;;18.75;18.75;;;;;;;;4953553;28;8931;-67
2023/02/20 00:47:19;;;;;;;;;18.50;18.50;;;;;;;;4953078;28;8823;-68
2023/02/20 00:49:44;;;;;;;;;20.25;19.25;;;;;;;;4953134;28;8807;-67
2023/02/20 00:52:10;;;;;;;;;18.50;17.25;;;;;;;;4953024;28;8994;-67
2023/02/20 00:54:35;;;;;;;;;13.00;12.00;;;;;;;;4953259;28;8792;-67
2023/02/20 00:57:00;;;;;;;;;18.25;16.25;;;;;;;;4952988;28;8808;-67
2023/02/20 00:59:25;;;;;;;;;12.00;12.00;;;;;;;;4953225;28;8818;-67
2023/02/20 01:01:51;;;;;;;;;17.75;16.00;;;;;;;;4952717;28;8869;-67
2023/02/20 01:04:16;;;;;;;;;19.50;16.00;;;;;;;;4952787;28;8788;-67
2023/02/20 01:06:42;;;;;;;;;19.50;17.50;;;;;;;;4952681;28;8902;-68
2023/02/20 01:09:07;;;;;;;;;17.75;17.50;;;;;;;;4951335;28;8831;-67
2023/02/20 01:11:32;;;;;;;;;25.00;21.25;;;;;;;;4952363;28;8827;-67
2023/02/20 01:13:57;;;;;;;;;23.00;22.00;;;;;;;;4952673;28;8796;-67
2023/02/20 01:16:23;;;;;;;;;19.50;16.25;;;;;;;;4952833;28;8819;-67
2023/02/20 01:18:49;;;;;;;;;22.00;17.00;;;;;;;;4967503;28;8870;-66
2023/02/20 01:21:15;;;;;;;;;23.00;19.00;;;;;;;;4952582;28;8803;-67
2023/02/20 01:23:40;;;;;;;;;21.00;19.75;;;;;;;;4950920;28;12359;-66
2023/02/20 01:26:06;;;;;;;;;17.75;17.75;;;;;;;;4967171;28;8827;-67
2023/02/20 01:28:31;;;;;;;;;25.25;19.50;;;;;;;;4952400;28;8792;-68
2023/02/20 01:30:57;;;;;;;;;15.25;14.25;;;;;;;;4950896;28;8831;-68
2023/02/20 01:33:22;;;;;;;;;15.25;14.75;;;;;;;;4952337;28;8942;-68
2023/02/20 01:35:47;;;;;;;;;17.75;16.50;;;;;;;;4966808;28;9547;-68
2023/02/20 01:38:13;;;;;;;;;18.75;18.50;;;;;;;;4950872;28;8823;-68
2023/02/20 01:40:38;;;;;;;;;18.25;16.00;;;;;;;;4951960;28;8796;-68
2023/02/20 01:43:03;;;;;;;;;22.75;19.25;;;;;;;;4952057;28;9507;-68
2023/02/20 01:45:29;;;;;;;;;25.00;21.00;;;;;;;;4951532;28;8882;-67
2023/02/20 01:47:55;;;;;;;;;19.25;18.75;;;;;;;;4952084;28;8824;-68
2023/02/20 01:50:32;;;;;;;;;23.75;21.00;;;;;;;;4951843;28;9503;-68
2023/02/20 01:53:00;;;;;;;;;21.75;21.25;;;;;;;;4952011;28;11549;-68
2023/02/20 01:55:37;;;;;;;;;21.75;20.00;;;;;;;;4952008;28;11569;-68
2023/02/20 01:58:11;;;;;;;;;26.50;18.50;;;;;;;;4951996;28;12443;-68
2023/02/20 02:00:36;;;;;;;;;;;;;;;;;;4953006;28;8367;-67
2023/02/20 02:03:01;;;;;;;;;;;;;;;;;;4953936;28;8180;-67
2023/02/20 02:05:26;;;;;;;;;;;;;;;;;;4953194;28;7629;-66
2023/02/20 02:07:51;;;;;;;;;;;;;;;;;;4953175;28;7974;-68
2023/02/20 02:10:16;;;;;;;;;;;;;;;;;;4951772;29;7538;-68
2023/02/20 02:12:42;;;;;;;;;;;;;;;;;;4952242;29;7606;-68
2023/02/20 02:15:07;;;;;;;;;;;;;;;;;;4953306;28;7534;-68
2023/02/20 02:17:32;;;;;;;;;;;;;;;;;;4953693;28;7579;-67
2023/02/20 02:19:57;;;;;;;;;;;;;;;;;;4953200;28;7598;-67
2023/02/20 02:22:24;;;;;;;;;;;;;;;;;;4951760;29;7527;-67
2023/02/20 02:24:49;;;;;;;;;;;;;;;;;;4951642;29;7574;-67
2023/02/20 02:27:14;;;;;;;;;;;;;;;;;;4951356;29;7793;-67
2023/02/20 02:29:39;;;;;;;;;;;;;;;;;;4952578;28;7523;-67
2023/02/20 02:32:05;;;;;;;;;;;;;;;;;;4952805;28;7534;-68
2023/02/20 02:34:30;;;;;;;;;;;;;;;;;;4952899;28;7593;-70
2023/02/20 02:36:55;;;;;;;;;;;;;;;;;;4952565;28;7527;-69
2023/02/20 02:39:20;;;;;;;;;;;;;;;;;;4952622;28;7534;-68
2023/02/20 02:41:45;;;;;;;;;;;;;;;;;;4952833;28;7560;-68
2023/02/20 02:44:10;;;;;;;;;;;;;;;;;;4952896;28;7531;-68
2023/02/20 02:46:36;;;;;;;;;;;;;;;;;;4953024;28;7539;-69
2023/02/20 02:49:02;;;;;;;;;;;;;;;;;;4952976;28;7531;-69
2023/02/20 02:51:27;;;;;;;;;;;;;;;;;;4952381;28;7629;-70
2023/02/20 02:53:52;;;;;;;;;;;;;;;;;;4952612;28;7526;-69
2023/02/20 02:56:20;;;;;;;;;;;;;;;;;;4952384;28;7526;-69
2023/02/20 02:58:45;;;;;;;;;;;;;;;;;;4951297;29;7530;-69
2023/02/20 03:01:11;;;;;;;;;;;;;;;;;;4952526;28;7633;-69
2023/02/20 03:03:36;;;;;;;;;;;;;;;;;;4952502;28;7531;-69
2023/02/20 03:06:01;;;;;;;;;;;;;;;;;;4952639;28;7530;-70
2023/02/20 03:08:29;;;;;;;;;;;;;;;;;;4952572;28;7538;-69
2023/02/20 03:10:54;;;;;;;;;;;;;;;;;;4952256;28;7518;-69
2023/02/20 03:13:20;;;;;;;;;;;;;;;;;;4952457;28;7558;-69
2023/02/20 03:15:45;;;;;;;;;;;;;;;;;;4952269;28;7531;-69
2023/02/20 03:18:10;;;;;;;;;;;;;;;;;;4952320;28;7557;-69
2023/02/20 03:20:35;;;;;;;;;;;;;;;;;;4950701;29;7523;-68
2023/02/20 03:23:00;;;;;;;;;;;;;;;;;;4952237;28;7616;-70
2023/02/20 03:25:25;;;;;;;;;;;;;;;;;;4952466;28;7522;-69
2023/02/20 03:27:51;;;;;;;;;;;;;;;;;;4952320;29;7562;-70
2023/02/20 03:30:16;;;;;;;;;;;;;;;;;;4952195;28;7681;-69
2023/02/20 03:43:36;;;;;;;;;;;;;;;;;;4952133;29;7515;-69
2023/02/20 03:46:01;;;;;;;;;;;;;;;;;;4975629;23;7545;-73
2023/02/20 03:48:26;;;;;;;;;;;;;;;;;;4952908;28;7530;-74
2023/02/20 03:53:35;;;;;;;;;;;;;;;;;;4953150;29;7511;-73
2023/02/20 03:56:00;;;;;;;;;;;;;;;;;;4953019;28;7526;-74
2023/02/20 03:58:26;;;;;;;;;;;;;;;;;;4951762;28;7511;-73
2023/02/20 04:00:51;;;;;;;;;;;;;;;;;;4952988;28;7534;-73
2023/02/20 04:03:16;;;;;;;;;;;;;;;;;;4951655;28;7543;-73
2023/02/20 04:05:41;;;;;;;;;;;;;;;;;;4953067;28;7609;-73
2023/02/20 04:08:06;;;;;;;;;;;;;;;;;;4953360;28;7522;-73
2023/02/20 04:10:31;;;;;;;;;;;;;;;;;;4956460;28;7561;-73
2023/02/20 04:12:56;;;;;;;;;;;;;;;;;;4956392;28;7526;-73
2023/02/20 04:15:21;;;;;;;;;;;;;;;;;;4956523;28;7543;-73
2023/02/20 04:17:47;;;;;;;;;;;;;;;;;;4955033;28;7550;-73
2023/02/20 04:20:12;;;;;;;;;;;;;;;;;;4956331;28;7546;-73
2023/02/20 04:22:37;;;;;;;;;;;;;;;;;;4956240;28;7523;-75
2023/02/20 04:25:03;;;;;;;;;;;;;;;;;;4956007;28;7522;-73
2023/02/20 04:27:28;;;;;;;;;;;;;;;;;;4956355;28;7522;-73
2023/02/20 04:29:53;;;;;;;;;;;;;;;;;;4955989;28;7633;-74
2023/02/20 04:32:18;;;;;;;;;;;;;;;;;;4956134;28;7531;-73
2023/02/20 04:34:43;;;;;;;;;;;;;;;;;;4955948;28;7534;-73
2023/02/20 04:37:09;;;;;;;;;;;;;;;;;;4955957;28;7569;-73
2023/02/20 04:39:34;;;;;;;;;;;;;;;;;;4955891;28;7526;-73
2023/02/20 04:41:59;;;;;;;;;;;;;;;;;;4955806;28;7553;-73
2023/02/20 04:44:30;;;;;;;;;;;;;;;;;;4955775;28;7526;-73
2023/02/20 04:46:58;;;;;;;;;;;;;;;;;;4955910;28;7642;-73
2023/02/20 04:49:23;;;;;;;;;;;;;;;;;;4954319;28;7550;-72
2023/02/20 04:51:48;;;;;;;;;;;;;;;;;;4954172;28;7554;-72
2023/02/20 04:54:13;;;;;;;;;;;;;;;;;;4954229;28;7557;-73
2023/02/20 04:56:38;;;;;;;;;;;;;;;;;;4955648;28;7526;-72
2023/02/20 04:59:04;;;;;;;;;;;;;;;;;;4954126;28;7510;-72
2023/02/20 05:01:29;;;;;;;;;;;;;;;;;;4955647;28;7581;-74
2023/02/20 05:03:54;;;;;;;;;;;;;;;;;;4955493;28;7531;-74
2023/02/20 05:06:19;;;;;;;;;;;;;;;;;;4953890;28;7519;-72
2023/02/20 05:08:44;;;;;;;;;;;;;;;;;;4955261;28;7527;-72
2023/02/20 05:11:09;;;;;;;;;;;;;;;;;;4954663;28;7565;-73
2023/02/20 05:13:34;;;;;;;;;;;;;;;;;;4938386;28;7531;-73
2023/02/20 05:15:59;;;;;;;;;;;;;;;;;;4950669;28;7570;-74
2023/02/20 05:18:25;;;;;;;;;;;;;;;;;;4935876;29;7579;-73
2023/02/20 05:23:34;;;;;;;;;;;;;;;;;;4935945;29;7570;-73
2023/02/20 05:25:59;;;;;;;;;;;;;;;;;;4935891;29;7537;-72
2023/02/20 05:28:24;;;;;;;;;;;;;;;;;;4935675;29;7531;-73
2023/02/20 05:30:49;;;;;;;;;;;;;;;;;;4935655;29;7686;-75
2023/02/20 05:33:14;;;;;;;;;;;;;;;;;;4935619;29;7530;-73
2023/02/20 05:35:40;;;;;;;;;;;;;;;;;;4935514;28;7548;-72
2023/02/20 05:38:05;;;;;;;;;;;;;;;;;;4935659;28;7531;-74
